sensor_id;sensor_type;location;lat;lon;timestamp;temperature;humidity
47350;DHT22;33088;51.982;5.872;2023-02-26T00:00:12;0.10;99.90
47350;DHT22;33088;51.982;5.872;2023-02-26T00:02:43;0.00;99.90
47350;DHT22;33088;51.982;5.872;2023-02-26T00:05:11;0.00;99.90
47350;DHT22;33088;51.982;5.872;2023-02-26T00:07:37;0.00;99.90
47350;DHT22;33088;51.982;5.872;2023-02-26T00:10:06;-0.10;99.90
47350;DHT22;33088;51.982;5.872;2023-02-26T00:12:32;-0.10;99.90
47350;DHT22;33088;51.982;5.872;2023-02-26T00:14:58;-0.10;99.90
47350;DHT22;33088;51.982;5.872;2023-02-26T00:20:06;-0.10;99.90
47350;DHT22;33088;51.982;5.872;2023-02-26T00:22:33;-0.10;99.90
47350;DHT22;33088;51.982;5.872;2023-02-26T00:24:59;-0.10;99.90
47350;DHT22;33088;51.982;5.872;2023-02-26T00:27:24;0.00;99.90
47350;DHT22;33088;51.982;5.872;2023-02-26T00:29:50;-0.10;99.90
47350;DHT22;33088;51.982;5.872;2023-02-26T00:32:16;0.00;99.90
47350;DHT22;33088;51.982;5.872;2023-02-26T00:34:45;-0.10;99.90
47350;DHT22;33088;51.982;5.872;2023-02-26T00:37:27;-0.10;99.90
47350;DHT22;33088;51.982;5.872;2023-02-26T00:40:20;0.00;99.90
47350;DHT22;33088;51.982;5.872;2023-02-26T00:42:47;0.00;99.90
47350;DHT22;33088;51.982;5.872;2023-02-26T00:45:14;0.00;99.90
47350;DHT22;33088;51.982;5.872;2023-02-26T00:50:30;0.00;99.90
47350;DHT22;33088;51.982;5.872;2023-02-26T00:55:45;-0.10;99.90
47350;DHT22;33088;51.982;5.872;2023-02-26T00:58:10;-0.10;99.90
47350;DHT22;33088;51.982;5.872;2023-02-26T01:00:36;-0.10;99.90
47350;DHT22;33088;51.982;5.872;2023-02-26T01:03:02;-0.10;99.90
47350;DHT22;33088;51.982;5.872;2023-02-26T01:05:28;-0.10;99.90
47350;DHT22;33088;51.982;5.872;2023-02-26T01:08:00;-0.10;99.90
47350;DHT22;33088;51.982;5.872;2023-02-26T01:10:28;-0.10;99.90
47350;DHT22;33088;51.982;5.872;2023-02-26T01:12:53;-0.10;99.90
47350;DHT22;33088;51.982;5.872;2023-02-26T01:15:22;-0.10;99.90
47350;DHT22;33088;51.982;5.872;2023-02-26T01:18:17;0.00;99.90
47350;DHT22;33088;51.982;5.872;2023-02-26T01:20:46;-0.10;99.90
47350;DHT22;33088;51.982;5.872;2023-02-26T01:23:25;0.00;99.90
47350;DHT22;33088;51.982;5.872;2023-02-26T01:28:20;0.00;99.90
47350;DHT22;33088;51.982;5.872;2023-02-26T01:30:46;0.00;99.90
47350;DHT22;33088;51.982;5.872;2023-02-26T01:33:31;0.00;99.90
47350;DHT22;33088;51.982;5.872;2023-02-26T01:36:14;0.00;99.90
47350;DHT22;33088;51.982;5.872;2023-02-26T01:41:32;-0.20;99.90
47350;DHT22;33088;51.982;5.872;2023-02-26T01:49:25;-0.40;99.90
47350;DHT22;33088;51.982;5.872;2023-02-26T01:52:02;-0.50;99.90
47350;DHT22;33088;51.982;5.872;2023-02-26T01:54:31;-0.60;99.90
47350;DHT22;33088;51.982;5.872;2023-02-26T01:57:09;-0.60;99.90
47350;DHT22;33088;51.982;5.872;2023-02-26T01:59:39;-0.70;99.90
47350;DHT22;33088;51.982;5.872;2023-02-26T02:02:07;-0.80;99.90
47350;DHT22;33088;51.982;5.872;2023-02-26T02:04:34;-0.80;99.90
47350;DHT22;33088;51.982;5.872;2023-02-26T02:07:01;-0.80;99.90
47350;DHT22;33088;51.982;5.872;2023-02-26T02:09:28;-0.90;99.90
47350;DHT22;33088;51.982;5.872;2023-02-26T02:15:03;-0.90;99.90
47350;DHT22;33088;51.982;5.872;2023-02-26T02:26:13;-1.10;99.90
47350;DHT22;33088;51.982;5.872;2023-02-26T02:33:57;-0.90;99.90
47350;DHT22;33088;51.982;5.872;2023-02-26T02:36:35;-0.90;99.90
47350;DHT22;33088;51.982;5.872;2023-02-26T02:39:08;-0.90;99.90
47350;DHT22;33088;51.982;5.872;2023-02-26T02:41:41;-0.90;99.90
47350;DHT22;33088;51.982;5.872;2023-02-26T02:44:12;-0.90;99.90
47350;DHT22;33088;51.982;5.872;2023-02-26T02:46:40;-0.90;99.90
47350;DHT22;33088;51.982;5.872;2023-02-26T02:49:37;-1.00;99.90
47350;DHT22;33088;51.982;5.872;2023-02-26T02:52:12;-0.90;99.90
47350;DHT22;33088;51.982;5.872;2023-02-26T02:54:50;-0.90;99.90
47350;DHT22;33088;51.982;5.872;2023-02-26T02:57:40;-0.90;99.90
47350;DHT22;33088;51.982;5.872;2023-02-26T03:00:10;-1.00;99.90
47350;DHT22;33088;51.982;5.872;2023-02-26T03:03:15;-1.10;99.90
47350;DHT22;33088;51.982;5.872;2023-02-26T03:05:37;-1.00;99.90
47350;DHT22;33088;51.982;5.872;2023-02-26T03:08:09;-1.10;99.90
47350;DHT22;33088;51.982;5.872;2023-02-26T03:10:36;-1.00;99.90
47350;DHT22;33088;51.982;5.872;2023-02-26T03:13:02;-1.00;99.90
47350;DHT22;33088;51.982;5.872;2023-02-26T03:15:42;-1.00;99.90
47350;DHT22;33088;51.982;5.872;2023-02-26T03:18:21;-1.00;99.90
47350;DHT22;33088;51.982;5.872;2023-02-26T03:24:07;-1.00;99.90
47350;DHT22;33088;51.982;5.872;2023-02-26T03:26:43;-1.00;99.90
47350;DHT22;33088;51.982;5.872;2023-02-26T03:29:25;-1.00;99.90
47350;DHT22;33088;51.982;5.872;2023-02-26T03:31:58;-1.10;99.90
47350;DHT22;33088;51.982;5.872;2023-02-26T03:34:30;-1.10;99.90
47350;DHT22;33088;51.982;5.872;2023-02-26T03:37:04;-1.10;99.90
47350;DHT22;33088;51.982;5.872;2023-02-26T03:39:36;-1.20;99.90
47350;DHT22;33088;51.982;5.872;2023-02-26T03:44:57;-1.10;99.90
47350;DHT22;33088;51.982;5.872;2023-02-26T03:47:24;-1.10;99.90
47350;DHT22;33088;51.982;5.872;2023-02-26T03:50:16;-1.00;99.90
47350;DHT22;33088;51.982;5.872;2023-02-26T03:52:50;-1.00;99.90
47350;DHT22;33088;51.982;5.872;2023-02-26T03:55:33;-1.10;99.90
47350;DHT22;33088;51.982;5.872;2023-02-26T03:58:18;-1.10;99.90
47350;DHT22;33088;51.982;5.872;2023-02-26T04:01:13;-1.20;99.90
47350;DHT22;33088;51.982;5.872;2023-02-26T04:06:19;-1.40;99.90
47350;DHT22;33088;51.982;5.872;2023-02-26T04:08:45;-1.40;99.90
47350;DHT22;33088;51.982;5.872;2023-02-26T04:11:14;-1.40;99.90
47350;DHT22;33088;51.982;5.872;2023-02-26T04:13:44;-1.50;99.90
47350;DHT22;33088;51.982;5.872;2023-02-26T04:16:09;-1.60;99.90
47350;DHT22;33088;51.982;5.872;2023-02-26T04:18:35;-1.60;99.90
47350;DHT22;33088;51.982;5.872;2023-02-26T04:21:02;-1.70;99.90
47350;DHT22;33088;51.982;5.872;2023-02-26T04:23:28;-1.70;99.90
47350;DHT22;33088;51.982;5.872;2023-02-26T04:25:54;-1.70;99.90
47350;DHT22;33088;51.982;5.872;2023-02-26T04:28:20;-1.60;99.90
47350;DHT22;33088;51.982;5.872;2023-02-26T04:30:46;-1.60;99.90
47350;DHT22;33088;51.982;5.872;2023-02-26T04:33:13;-1.70;99.90
47350;DHT22;33088;51.982;5.872;2023-02-26T04:35:40;-1.60;99.90
47350;DHT22;33088;51.982;5.872;2023-02-26T04:38:06;-1.50;99.90
47350;DHT22;33088;51.982;5.872;2023-02-26T04:40:31;-1.50;99.90
47350;DHT22;33088;51.982;5.872;2023-02-26T04:42:57;-1.50;99.90
47350;DHT22;33088;51.982;5.872;2023-02-26T04:45:26;-1.40;99.90
47350;DHT22;33088;51.982;5.872;2023-02-26T04:47:52;-1.40;99.90
47350;DHT22;33088;51.982;5.872;2023-02-26T04:50:17;-1.40;99.90
47350;DHT22;33088;51.982;5.872;2023-02-26T04:52:46;-1.30;99.90
47350;DHT22;33088;51.982;5.872;2023-02-26T04:55:12;-1.30;99.90
47350;DHT22;33088;51.982;5.872;2023-02-26T04:57:37;-1.30;99.90
47350;DHT22;33088;51.982;5.872;2023-02-26T05:00:04;-1.20;99.90
47350;DHT22;33088;51.982;5.872;2023-02-26T05:02:35;-1.20;99.90
47350;DHT22;33088;51.982;5.872;2023-02-26T05:05:01;-1.20;99.90
47350;DHT22;33088;51.982;5.872;2023-02-26T05:07:27;-1.20;99.90
47350;DHT22;33088;51.982;5.872;2023-02-26T05:09:53;-1.20;99.90
47350;DHT22;33088;51.982;5.872;2023-02-26T05:12:19;-1.10;99.90
47350;DHT22;33088;51.982;5.872;2023-02-26T05:14:44;-1.20;99.90
47350;DHT22;33088;51.982;5.872;2023-02-26T05:17:10;-1.20;99.90
47350;DHT22;33088;51.982;5.872;2023-02-26T05:19:36;-1.10;99.90
47350;DHT22;33088;51.982;5.872;2023-02-26T05:22:01;-1.20;99.90
47350;DHT22;33088;51.982;5.872;2023-02-26T05:24:28;-1.30;99.90
47350;DHT22;33088;51.982;5.872;2023-02-26T05:26:54;-1.20;99.90
47350;DHT22;33088;51.982;5.872;2023-02-26T05:29:19;-1.20;99.90
47350;DHT22;33088;51.982;5.872;2023-02-26T05:31:45;-1.20;99.90
47350;DHT22;33088;51.982;5.872;2023-02-26T05:34:11;-1.20;99.90
47350;DHT22;33088;51.982;5.872;2023-02-26T05:36:36;-1.30;99.90
47350;DHT22;33088;51.982;5.872;2023-02-26T05:39:02;-1.40;99.90
47350;DHT22;33088;51.982;5.872;2023-02-26T05:41:28;-1.40;99.90
47350;DHT22;33088;51.982;5.872;2023-02-26T05:43:53;-1.40;99.90
47350;DHT22;33088;51.982;5.872;2023-02-26T05:46:19;-1.30;99.90
47350;DHT22;33088;51.982;5.872;2023-02-26T05:48:45;-1.30;99.90
47350;DHT22;33088;51.982;5.872;2023-02-26T05:51:10;-1.30;99.90
47350;DHT22;33088;51.982;5.872;2023-02-26T05:53:36;-1.30;99.90
47350;DHT22;33088;51.982;5.872;2023-02-26T05:56:01;-1.20;99.90
47350;DHT22;33088;51.982;5.872;2023-02-26T05:58:27;-1.30;99.90
47350;DHT22;33088;51.982;5.872;2023-02-26T06:00:53;-1.30;99.90
47350;DHT22;33088;51.982;5.872;2023-02-26T06:03:18;-1.30;99.90
47350;DHT22;33088;51.982;5.872;2023-02-26T06:05:44;-1.30;99.90
47350;DHT22;33088;51.982;5.872;2023-02-26T06:08:10;-1.30;99.90
47350;DHT22;33088;51.982;5.872;2023-02-26T06:10:39;-1.20;99.90
47350;DHT22;33088;51.982;5.872;2023-02-26T06:13:05;-1.20;99.90
47350;DHT22;33088;51.982;5.872;2023-02-26T06:15:31;-1.30;99.90
47350;DHT22;33088;51.982;5.872;2023-02-26T06:17:57;-1.30;99.90
47350;DHT22;33088;51.982;5.872;2023-02-26T06:20:22;-1.20;99.90
47350;DHT22;33088;51.982;5.872;2023-02-26T06:22:48;-1.20;99.90
47350;DHT22;33088;51.982;5.872;2023-02-26T06:25:14;-1.30;99.90
47350;DHT22;33088;51.982;5.872;2023-02-26T06:27:39;-1.30;99.90
47350;DHT22;33088;51.982;5.872;2023-02-26T06:30:05;-1.30;99.90
47350;DHT22;33088;51.982;5.872;2023-02-26T06:32:31;-1.30;99.90
47350;DHT22;33088;51.982;5.872;2023-02-26T06:34:57;-1.30;99.90
47350;DHT22;33088;51.982;5.872;2023-02-26T06:37:22;-1.30;99.90
47350;DHT22;33088;51.982;5.872;2023-02-26T06:39:48;-1.30;99.90
47350;DHT22;33088;51.982;5.872;2023-02-26T06:42:13;-1.30;99.90
47350;DHT22;33088;51.982;5.872;2023-02-26T06:44:39;-1.30;99.90
47350;DHT22;33088;51.982;5.872;2023-02-26T06:47:05;-1.30;99.90
47350;DHT22;33088;51.982;5.872;2023-02-26T06:49:31;-1.30;99.90
47350;DHT22;33088;51.982;5.872;2023-02-26T06:51:56;-1.30;99.90
47350;DHT22;33088;51.982;5.872;2023-02-26T06:54:22;-1.30;99.90
47350;DHT22;33088;51.982;5.872;2023-02-26T06:56:48;-1.20;99.90
47350;DHT22;33088;51.982;5.872;2023-02-26T06:59:13;-1.20;99.90
47350;DHT22;33088;51.982;5.872;2023-02-26T07:01:40;-1.20;99.90
47350;DHT22;33088;51.982;5.872;2023-02-26T07:04:05;-1.10;99.90
47350;DHT22;33088;51.982;5.872;2023-02-26T07:06:31;-1.10;99.90
47350;DHT22;33088;51.982;5.872;2023-02-26T07:08:57;-1.10;99.90
47350;DHT22;33088;51.982;5.872;2023-02-26T07:11:23;-1.10;99.90
47350;DHT22;33088;51.982;5.872;2023-02-26T07:13:48;-1.00;99.90
47350;DHT22;33088;51.982;5.872;2023-02-26T07:16:15;-1.00;99.90
47350;DHT22;33088;51.982;5.872;2023-02-26T07:18:44;-0.90;99.90
47350;DHT22;33088;51.982;5.872;2023-02-26T07:21:10;-0.80;99.90
47350;DHT22;33088;51.982;5.872;2023-02-26T07:23:35;-0.80;99.90
47350;DHT22;33088;51.982;5.872;2023-02-26T07:26:01;-0.80;99.90
47350;DHT22;33088;51.982;5.872;2023-02-26T07:28:27;-0.80;99.90
47350;DHT22;33088;51.982;5.872;2023-02-26T07:30:54;-0.70;99.90
47350;DHT22;33088;51.982;5.872;2023-02-26T07:33:20;-0.70;99.90
47350;DHT22;33088;51.982;5.872;2023-02-26T07:35:46;-0.60;99.90
47350;DHT22;33088;51.982;5.872;2023-02-26T07:38:12;-0.60;99.90
47350;DHT22;33088;51.982;5.872;2023-02-26T07:40:37;-0.50;99.90
47350;DHT22;33088;51.982;5.872;2023-02-26T07:43:03;-0.40;99.90
47350;DHT22;33088;51.982;5.872;2023-02-26T07:45:29;-0.30;99.90
47350;DHT22;33088;51.982;5.872;2023-02-26T07:47:54;-0.10;99.90
47350;DHT22;33088;51.982;5.872;2023-02-26T07:50:20;-0.20;99.90
47350;DHT22;33088;51.982;5.872;2023-02-26T07:52:50;-0.20;99.90
47350;DHT22;33088;51.982;5.872;2023-02-26T07:55:16;-0.20;99.90
47350;DHT22;33088;51.982;5.872;2023-02-26T07:57:41;-0.10;99.90
47350;DHT22;33088;51.982;5.872;2023-02-26T08:00:07;0.00;99.90
47350;DHT22;33088;51.982;5.872;2023-02-26T08:02:37;0.10;99.90
47350;DHT22;33088;51.982;5.872;2023-02-26T08:05:03;0.00;99.90
47350;DHT22;33088;51.982;5.872;2023-02-26T08:07:29;0.10;99.90
47350;DHT22;33088;51.982;5.872;2023-02-26T08:09:55;0.10;99.90
47350;DHT22;33088;51.982;5.872;2023-02-26T08:12:21;0.20;99.90
47350;DHT22;33088;51.982;5.872;2023-02-26T08:14:50;0.30;99.90
47350;DHT22;33088;51.982;5.872;2023-02-26T08:17:15;0.30;99.90
47350;DHT22;33088;51.982;5.872;2023-02-26T08:19:41;0.40;99.90
47350;DHT22;33088;51.982;5.872;2023-02-26T08:22:08;0.40;99.90
47350;DHT22;33088;51.982;5.872;2023-02-26T08:24:33;0.60;99.90
47350;DHT22;33088;51.982;5.872;2023-02-26T08:26:59;0.60;99.90
47350;DHT22;33088;51.982;5.872;2023-02-26T08:29:25;0.60;99.90
47350;DHT22;33088;51.982;5.872;2023-02-26T08:31:50;0.70;99.90
47350;DHT22;33088;51.982;5.872;2023-02-26T08:34:19;0.80;99.90
47350;DHT22;33088;51.982;5.872;2023-02-26T08:36:44;0.80;99.90
47350;DHT22;33088;51.982;5.872;2023-02-26T08:39:10;0.90;99.90
47350;DHT22;33088;51.982;5.872;2023-02-26T08:41:36;1.00;99.90
47350;DHT22;33088;51.982;5.872;2023-02-26T08:44:02;1.10;99.90
47350;DHT22;33088;51.982;5.872;2023-02-26T08:46:28;1.10;99.90
47350;DHT22;33088;51.982;5.872;2023-02-26T08:48:54;1.10;99.90
47350;DHT22;33088;51.982;5.872;2023-02-26T08:51:21;1.20;99.90
47350;DHT22;33088;51.982;5.872;2023-02-26T08:53:47;1.20;99.90
47350;DHT22;33088;51.982;5.872;2023-02-26T08:56:15;1.20;99.90
47350;DHT22;33088;51.982;5.872;2023-02-26T08:58:41;1.40;99.90
47350;DHT22;33088;51.982;5.872;2023-02-26T09:01:07;1.50;99.90
47350;DHT22;33088;51.982;5.872;2023-02-26T09:03:33;1.40;99.90
47350;DHT22;33088;51.982;5.872;2023-02-26T09:05:59;1.50;99.90
47350;DHT22;33088;51.982;5.872;2023-02-26T09:08:25;1.50;99.90
47350;DHT22;33088;51.982;5.872;2023-02-26T09:10:51;1.50;99.90
47350;DHT22;33088;51.982;5.872;2023-02-26T09:13:17;1.60;99.90
47350;DHT22;33088;51.982;5.872;2023-02-26T09:15:42;1.60;99.90
47350;DHT22;33088;51.982;5.872;2023-02-26T09:18:09;1.60;99.90
47350;DHT22;33088;51.982;5.872;2023-02-26T09:20:41;1.80;99.90
47350;DHT22;33088;51.982;5.872;2023-02-26T09:23:07;1.80;99.90
47350;DHT22;33088;51.982;5.872;2023-02-26T09:25:33;1.90;99.90
47350;DHT22;33088;51.982;5.872;2023-02-26T09:27:59;1.90;99.90
47350;DHT22;33088;51.982;5.872;2023-02-26T09:30:24;2.00;99.90
47350;DHT22;33088;51.982;5.872;2023-02-26T09:32:50;2.00;99.90
47350;DHT22;33088;51.982;5.872;2023-02-26T09:35:16;2.10;99.90
47350;DHT22;33088;51.982;5.872;2023-02-26T09:37:42;2.10;99.90
47350;DHT22;33088;51.982;5.872;2023-02-26T09:40:20;2.20;99.90
47350;DHT22;33088;51.982;5.872;2023-02-26T09:42:57;2.30;99.90
47350;DHT22;33088;51.982;5.872;2023-02-26T09:45:32;2.20;99.90
47350;DHT22;33088;51.982;5.872;2023-02-26T09:48:02;2.10;99.90
47350;DHT22;33088;51.982;5.872;2023-02-26T09:50:41;2.20;99.90
47350;DHT22;33088;51.982;5.872;2023-02-26T09:53:19;2.40;99.90
47350;DHT22;33088;51.982;5.872;2023-02-26T09:55:48;2.40;99.90
47350;DHT22;33088;51.982;5.872;2023-02-26T09:58:31;2.50;99.90
47350;DHT22;33088;51.982;5.872;2023-02-26T10:01:00;2.60;99.90
47350;DHT22;33088;51.982;5.872;2023-02-26T10:06:48;2.50;99.90
47350;DHT22;33088;51.982;5.872;2023-02-26T10:14:29;2.70;99.90
47350;DHT22;33088;51.982;5.872;2023-02-26T10:17:01;2.70;99.90
47350;DHT22;33088;51.982;5.872;2023-02-26T10:19:31;2.80;99.90
47350;DHT22;33088;51.982;5.872;2023-02-26T10:24:48;2.90;99.90
47350;DHT22;33088;51.982;5.872;2023-02-26T10:27:21;3.00;99.90
47350;DHT22;33088;51.982;5.872;2023-02-26T10:32:49;3.30;99.90
47350;DHT22;33088;51.982;5.872;2023-02-26T10:35:16;3.40;99.90
47350;DHT22;33088;51.982;5.872;2023-02-26T10:40:43;3.50;99.90
47350;DHT22;33088;51.982;5.872;2023-02-26T10:43:38;3.50;99.90
47350;DHT22;33088;51.982;5.872;2023-02-26T10:51:17;3.60;99.90
47350;DHT22;33088;51.982;5.872;2023-02-26T10:54:01;3.50;99.90
47350;DHT22;33088;51.982;5.872;2023-02-26T10:56:29;3.30;99.90
47350;DHT22;33088;51.982;5.872;2023-02-26T10:58:55;3.40;99.90
47350;DHT22;33088;51.982;5.872;2023-02-26T11:01:24;3.40;99.90
47350;DHT22;33088;51.982;5.872;2023-02-26T11:03:58;3.50;99.90
47350;DHT22;33088;51.982;5.872;2023-02-26T11:06:55;3.50;99.90
47350;DHT22;33088;51.982;5.872;2023-02-26T11:09:38;3.40;99.90
47350;DHT22;33088;51.982;5.872;2023-02-26T11:14:36;3.30;99.90
47350;DHT22;33088;51.982;5.872;2023-02-26T11:17:17;3.40;99.90
47350;DHT22;33088;51.982;5.872;2023-02-26T11:19:51;3.40;99.90
47350;DHT22;33088;51.982;5.872;2023-02-26T11:22:17;3.30;99.90
47350;DHT22;33088;51.982;5.872;2023-02-26T11:24:48;3.40;99.90
47350;DHT22;33088;51.982;5.872;2023-02-26T11:27:19;3.50;99.90
47350;DHT22;33088;51.982;5.872;2023-02-26T11:30:02;3.50;99.90
47350;DHT22;33088;51.982;5.872;2023-02-26T11:32:33;3.70;99.90
47350;DHT22;33088;51.982;5.872;2023-02-26T11:34:59;3.90;99.90
47350;DHT22;33088;51.982;5.872;2023-02-26T11:37:30;4.10;99.90
47350;DHT22;33088;51.982;5.872;2023-02-26T11:40:04;4.30;99.90
47350;DHT22;33088;51.982;5.872;2023-02-26T11:42:44;4.60;99.90
47350;DHT22;33088;51.982;5.872;2023-02-26T11:45:16;4.70;99.90
47350;DHT22;33088;51.982;5.872;2023-02-26T11:47:43;4.90;99.90
47350;DHT22;33088;51.982;5.872;2023-02-26T11:50:20;4.90;99.90
47350;DHT22;33088;51.982;5.872;2023-02-26T11:52:55;4.90;99.90
47350;DHT22;33088;51.982;5.872;2023-02-26T11:55:33;4.80;99.90
47350;DHT22;33088;51.982;5.872;2023-02-26T11:58:00;4.70;99.90
47350;DHT22;33088;51.982;5.872;2023-02-26T12:03:07;4.40;99.90
47350;DHT22;33088;51.982;5.872;2023-02-26T12:05:37;4.50;99.90
47350;DHT22;33088;51.982;5.872;2023-02-26T12:08:14;4.50;99.90
47350;DHT22;33088;51.982;5.872;2023-02-26T12:11:34;4.60;99.90
47350;DHT22;33088;51.982;5.872;2023-02-26T12:14:16;4.60;99.90
47350;DHT22;33088;51.982;5.872;2023-02-26T12:25:00;4.60;99.90
47350;DHT22;33088;51.982;5.872;2023-02-26T12:36:15;4.90;99.90
47350;DHT22;33088;51.982;5.872;2023-02-26T12:45:03;5.00;99.90
47350;DHT22;33088;51.982;5.872;2023-02-26T12:52:49;4.90;99.90
47350;DHT22;33088;51.982;5.872;2023-02-26T12:58:24;5.10;99.90
47350;DHT22;33088;51.982;5.872;2023-02-26T13:03:47;5.40;99.90
47350;DHT22;33088;51.982;5.872;2023-02-26T13:09:48;5.40;99.90
47350;DHT22;33088;51.982;5.872;2023-02-26T13:15:31;5.30;99.90
47350;DHT22;33088;51.982;5.872;2023-02-26T13:24:35;5.20;99.90
47350;DHT22;33088;51.982;5.872;2023-02-26T13:26:41;5.20;99.90
47350;DHT22;33088;51.982;5.872;2023-02-26T13:29:15;5.20;99.90
47350;DHT22;33088;51.982;5.872;2023-02-26T13:31:51;5.30;99.90
47350;DHT22;33088;51.982;5.872;2023-02-26T13:37:05;5.20;99.90
47350;DHT22;33088;51.982;5.872;2023-02-26T13:39:55;5.30;99.90
47350;DHT22;33088;51.982;5.872;2023-02-26T13:42:42;5.40;99.70
47350;DHT22;33088;51.982;5.872;2023-02-26T13:51:12;5.50;99.10
47350;DHT22;33088;51.982;5.872;2023-02-26T13:56:16;5.30;99.00
47350;DHT22;33088;51.982;5.872;2023-02-26T13:58:52;5.40;99.30
47350;DHT22;33088;51.982;5.872;2023-02-26T14:01:32;5.40;99.10
47350;DHT22;33088;51.982;5.872;2023-02-26T14:07:11;5.40;99.10
47350;DHT22;33088;51.982;5.872;2023-02-26T14:10:00;5.40;99.50
47350;DHT22;33088;51.982;5.872;2023-02-26T14:12:36;5.40;99.20
47350;DHT22;33088;51.982;5.872;2023-02-26T14:17:47;5.40;99.70
47350;DHT22;33088;51.982;5.872;2023-02-26T14:25:46;5.60;99.50
47350;DHT22;33088;51.982;5.872;2023-02-26T14:34:06;5.60;99.70
47350;DHT22;33088;51.982;5.872;2023-02-26T14:36:41;5.60;99.80
47350;DHT22;33088;51.982;5.872;2023-02-26T14:39:22;5.50;99.20
47350;DHT22;33088;51.982;5.872;2023-02-26T14:41:51;5.50;99.90
47350;DHT22;33088;51.982;5.872;2023-02-26T14:44:24;5.50;99.50
47350;DHT22;33088;51.982;5.872;2023-02-26T14:46:51;5.50;99.70
47350;DHT22;33088;51.982;5.872;2023-02-26T14:49:38;5.50;99.90
47350;DHT22;33088;51.982;5.872;2023-02-26T14:52:27;5.50;99.90
47350;DHT22;33088;51.982;5.872;2023-02-26T14:55:25;5.50;99.90
47350;DHT22;33088;51.982;5.872;2023-02-26T15:00:39;5.60;99.90
47350;DHT22;33088;51.982;5.872;2023-02-26T15:11:28;5.50;99.90
47350;DHT22;33088;51.982;5.872;2023-02-26T15:14:08;5.50;99.90
47350;DHT22;33088;51.982;5.872;2023-02-26T15:16:57;5.40;99.90
47350;DHT22;33088;51.982;5.872;2023-02-26T15:19:50;5.40;99.90
47350;DHT22;33088;51.982;5.872;2023-02-26T15:22:34;5.40;99.90
47350;DHT22;33088;51.982;5.872;2023-02-26T15:25:02;5.30;99.90
47350;DHT22;33088;51.982;5.872;2023-02-26T15:27:30;5.40;99.90
47350;DHT22;33088;51.982;5.872;2023-02-26T15:29:56;5.30;99.90
47350;DHT22;33088;51.982;5.872;2023-02-26T15:32:27;5.40;99.90
47350;DHT22;33088;51.982;5.872;2023-02-26T15:37:27;5.40;99.50
47350;DHT22;33088;51.982;5.872;2023-02-26T15:39:58;5.20;99.90
47350;DHT22;33088;51.982;5.872;2023-02-26T15:42:28;5.20;99.90
47350;DHT22;33088;51.982;5.872;2023-02-26T15:44:56;5.20;99.90
47350;DHT22;33088;51.982;5.872;2023-02-26T15:47:22;5.10;99.90
47350;DHT22;33088;51.982;5.872;2023-02-26T15:49:48;5.10;99.90
47350;DHT22;33088;51.982;5.872;2023-02-26T15:52:18;5.20;99.90
47350;DHT22;33088;51.982;5.872;2023-02-26T15:54:54;5.10;99.90
47350;DHT22;33088;51.982;5.872;2023-02-26T15:57:22;5.10;99.90
47350;DHT22;33088;51.982;5.872;2023-02-26T15:59:51;5.10;99.90
47350;DHT22;33088;51.982;5.872;2023-02-26T16:02:28;5.20;99.90
47350;DHT22;33088;51.982;5.872;2023-02-26T16:04:55;5.20;99.90
47350;DHT22;33088;51.982;5.872;2023-02-26T16:07:21;5.10;99.90
47350;DHT22;33088;51.982;5.872;2023-02-26T16:09:49;5.10;99.90
47350;DHT22;33088;51.982;5.872;2023-02-26T16:12:25;5.00;99.90
47350;DHT22;33088;51.982;5.872;2023-02-26T16:14:59;5.00;99.90
47350;DHT22;33088;51.982;5.872;2023-02-26T16:17:29;5.00;99.90
47350;DHT22;33088;51.982;5.872;2023-02-26T16:19:58;5.00;99.90
47350;DHT22;33088;51.982;5.872;2023-02-26T16:25:14;4.90;99.90
47350;DHT22;33088;51.982;5.872;2023-02-26T16:27:40;4.90;99.90
47350;DHT22;33088;51.982;5.872;2023-02-26T16:30:16;4.80;99.90
47350;DHT22;33088;51.982;5.872;2023-02-26T16:32:43;4.80;99.90
47350;DHT22;33088;51.982;5.872;2023-02-26T16:35:14;4.80;99.90
47350;DHT22;33088;51.982;5.872;2023-02-26T16:37:44;4.80;99.90
47350;DHT22;33088;51.982;5.872;2023-02-26T16:40:26;4.70;99.90
47350;DHT22;33088;51.982;5.872;2023-02-26T16:43:29;4.70;99.90
47350;DHT22;33088;51.982;5.872;2023-02-26T16:45:56;4.60;99.90
47350;DHT22;33088;51.982;5.872;2023-02-26T16:51:04;4.50;99.90
47350;DHT22;33088;51.982;5.872;2023-02-26T16:53:42;4.50;99.90
47350;DHT22;33088;51.982;5.872;2023-02-26T16:56:14;4.50;99.90
47350;DHT22;33088;51.982;5.872;2023-02-26T16:59:10;4.40;99.90
47350;DHT22;33088;51.982;5.872;2023-02-26T17:01:39;4.40;99.90
47350;DHT22;33088;51.982;5.872;2023-02-26T17:04:06;4.30;99.90
47350;DHT22;33088;51.982;5.872;2023-02-26T17:06:36;4.30;99.90
47350;DHT22;33088;51.982;5.872;2023-02-26T17:09:05;4.20;99.90
47350;DHT22;33088;51.982;5.872;2023-02-26T17:11:39;4.20;99.90
47350;DHT22;33088;51.982;5.872;2023-02-26T17:16:49;4.10;99.90
47350;DHT22;33088;51.982;5.872;2023-02-26T17:19:16;4.10;99.90
47350;DHT22;33088;51.982;5.872;2023-02-26T17:21:51;4.10;99.90
47350;DHT22;33088;51.982;5.872;2023-02-26T17:24:26;3.90;99.90
47350;DHT22;33088;51.982;5.872;2023-02-26T17:26:54;4.00;99.90
47350;DHT22;33088;51.982;5.872;2023-02-26T17:29:24;4.00;99.90
47350;DHT22;33088;51.982;5.872;2023-02-26T17:31:52;4.00;99.90
47350;DHT22;33088;51.982;5.872;2023-02-26T17:34:18;3.90;99.90
47350;DHT22;33088;51.982;5.872;2023-02-26T17:36:46;3.90;99.90
47350;DHT22;33088;51.982;5.872;2023-02-26T17:39:12;3.90;99.90
47350;DHT22;33088;51.982;5.872;2023-02-26T17:41:40;3.80;99.90
47350;DHT22;33088;51.982;5.872;2023-02-26T17:44:07;3.80;99.90
47350;DHT22;33088;51.982;5.872;2023-02-26T17:46:32;3.80;99.90
47350;DHT22;33088;51.982;5.872;2023-02-26T17:48:58;3.70;99.90
47350;DHT22;33088;51.982;5.872;2023-02-26T17:51:24;3.70;99.90
47350;DHT22;33088;51.982;5.872;2023-02-26T17:53:51;3.70;99.90
47350;DHT22;33088;51.982;5.872;2023-02-26T17:56:23;3.70;99.90
47350;DHT22;33088;51.982;5.872;2023-02-26T17:58:50;3.60;99.90
47350;DHT22;33088;51.982;5.872;2023-02-26T18:01:16;3.50;99.90
47350;DHT22;33088;51.982;5.872;2023-02-26T18:03:42;3.50;99.90
47350;DHT22;33088;51.982;5.872;2023-02-26T18:06:12;3.40;99.90
47350;DHT22;33088;51.982;5.872;2023-02-26T18:08:38;3.40;99.90
47350;DHT22;33088;51.982;5.872;2023-02-26T18:11:05;3.30;99.90
47350;DHT22;33088;51.982;5.872;2023-02-26T18:13:31;3.20;99.90
47350;DHT22;33088;51.982;5.872;2023-02-26T18:15:58;3.20;99.90
47350;DHT22;33088;51.982;5.872;2023-02-26T18:18:27;3.10;99.90
47350;DHT22;33088;51.982;5.872;2023-02-26T18:20:53;3.20;99.90
47350;DHT22;33088;51.982;5.872;2023-02-26T18:23:20;3.10;99.90
47350;DHT22;33088;51.982;5.872;2023-02-26T18:25:47;3.00;99.90
47350;DHT22;33088;51.982;5.872;2023-02-26T18:28:17;3.00;99.90
47350;DHT22;33088;51.982;5.872;2023-02-26T18:30:44;2.90;99.90
47350;DHT22;33088;51.982;5.872;2023-02-26T18:33:11;2.90;99.90
47350;DHT22;33088;51.982;5.872;2023-02-26T18:35:38;2.90;99.90
47350;DHT22;33088;51.982;5.872;2023-02-26T18:38:17;2.80;99.90
47350;DHT22;33088;51.982;5.872;2023-02-26T18:40:44;2.80;99.90
47350;DHT22;33088;51.982;5.872;2023-02-26T18:43:11;2.70;99.90
47350;DHT22;33088;51.982;5.872;2023-02-26T18:45:44;2.70;99.90
47350;DHT22;33088;51.982;5.872;2023-02-26T18:48:12;2.70;99.90